sensor_id;sensor_type;location;lat;lon;timestamp;P1;durP1;ratioP1;P2;durP2;ratioP2
68951;SDS011;56000;51.146;17.112;2023-09-07T00:02:05;9.20;;;5.80;;
68951;SDS011;56000;51.146;17.112;2023-09-07T00:04:38;10.10;;;5.20;;
68951;SDS011;56000;51.146;17.112;2023-09-07T00:07:11;10.40;;;5.70;;
68951;SDS011;56000;51.146;17.112;2023-09-07T00:09:45;10.50;;;5.70;;
68951;SDS011;56000;51.146;17.112;2023-09-07T00:12:18;8.70;;;5.30;;
68951;SDS011;56000;51.146;17.112;2023-09-07T00:14:51;11.50;;;5.60;;
68951;SDS011;56000;51.146;17.112;2023-09-07T00:17:25;9.40;;;5.60;;
68951;SDS011;56000;51.146;17.112;2023-09-07T00:19:58;9.60;;;5.60;;
68951;SDS011;56000;51.146;17.112;2023-09-07T00:22:34;10.60;;;5.80;;
68951;SDS011;56000;51.146;17.112;2023-09-07T00:25:08;11.20;;;5.60;;
68951;SDS011;56000;51.146;17.112;2023-09-07T00:27:41;10.20;;;5.40;;
68951;SDS011;56000;51.146;17.112;2023-09-07T00:30:15;10.40;;;6.00;;
68951;SDS011;56000;51.146;17.112;2023-09-07T00:32:48;10.60;;;6.00;;
68951;SDS011;56000;51.146;17.112;2023-09-07T00:35:21;14.30;;;5.60;;
68951;SDS011;56000;51.146;17.112;2023-09-07T00:37:54;12.90;;;6.50;;
68951;SDS011;56000;51.146;17.112;2023-09-07T00:40:27;10.30;;;6.10;;
68951;SDS011;56000;51.146;17.112;2023-09-07T00:43:01;9.90;;;6.40;;
68951;SDS011;56000;51.146;17.112;2023-09-07T00:45:35;9.70;;;6.00;;
68951;SDS011;56000;51.146;17.112;2023-09-07T00:48:10;11.80;;;6.50;;
68951;SDS011;56000;51.146;17.112;2023-09-07T00:50:44;11.10;;;5.80;;
68951;SDS011;56000;51.146;17.112;2023-09-07T00:53:18;9.30;;;5.80;;
68951;SDS011;56000;51.146;17.112;2023-09-07T00:55:52;11.50;;;6.40;;
68951;SDS011;56000;51.146;17.112;2023-09-07T00:58:28;10.40;;;6.30;;
68951;SDS011;56000;51.146;17.112;2023-09-07T01:01:02;14.30;;;6.20;;
68951;SDS011;56000;51.146;17.112;2023-09-07T01:03:35;11.10;;;6.20;;
68951;SDS011;56000;51.146;17.112;2023-09-07T01:06:12;10.80;;;6.00;;
68951;SDS011;56000;51.146;17.112;2023-09-07T01:08:51;10.70;;;6.60;;
68951;SDS011;56000;51.146;17.112;2023-09-07T01:11:27;12.50;;;6.10;;
68951;SDS011;56000;51.146;17.112;2023-09-07T01:14:07;10.30;;;6.00;;
68951;SDS011;56000;51.146;17.112;2023-09-07T01:16:40;11.80;;;6.00;;
68951;SDS011;56000;51.146;17.112;2023-09-07T01:19:14;11.20;;;6.70;;
68951;SDS011;56000;51.146;17.112;2023-09-07T01:21:47;11.70;;;6.40;;
68951;SDS011;56000;51.146;17.112;2023-09-07T01:24:21;10.70;;;6.10;;
68951;SDS011;56000;51.146;17.112;2023-09-07T01:26:55;11.90;;;6.80;;
68951;SDS011;56000;51.146;17.112;2023-09-07T01:29:29;10.10;;;6.50;;
68951;SDS011;56000;51.146;17.112;2023-09-07T01:32:04;11.60;;;5.80;;
68951;SDS011;56000;51.146;17.112;2023-09-07T01:34:40;8.70;;;5.80;;
68951;SDS011;56000;51.146;17.112;2023-09-07T01:37:13;9.60;;;5.70;;
68951;SDS011;56000;51.146;17.112;2023-09-07T01:39:46;11.10;;;6.30;;
68951;SDS011;56000;51.146;17.112;2023-09-07T01:42:20;9.00;;;6.40;;
68951;SDS011;56000;51.146;17.112;2023-09-07T01:44:53;10.90;;;5.70;;
68951;SDS011;56000;51.146;17.112;2023-09-07T01:47:25;15.70;;;6.70;;
68951;SDS011;56000;51.146;17.112;2023-09-07T01:49:59;9.30;;;5.60;;
68951;SDS011;56000;51.146;17.112;2023-09-07T01:52:33;9.70;;;6.50;;
68951;SDS011;56000;51.146;17.112;2023-09-07T01:55:06;9.70;;;5.80;;
68951;SDS011;56000;51.146;17.112;2023-09-07T01:57:39;10.80;;;6.00;;
68951;SDS011;56000;51.146;17.112;2023-09-07T02:00:14;11.10;;;6.30;;
68951;SDS011;56000;51.146;17.112;2023-09-07T02:02:47;11.80;;;5.80;;
68951;SDS011;56000;51.146;17.112;2023-09-07T02:05:20;12.30;;;6.10;;
68951;SDS011;56000;51.146;17.112;2023-09-07T02:07:53;14.00;;;6.50;;
68951;SDS011;56000;51.146;17.112;2023-09-07T02:10:26;11.10;;;5.40;;
68951;SDS011;56000;51.146;17.112;2023-09-07T02:13:00;9.60;;;5.60;;
68951;SDS011;56000;51.146;17.112;2023-09-07T02:15:34;10.90;;;6.10;;
68951;SDS011;56000;51.146;17.112;2023-09-07T02:18:10;9.90;;;6.50;;
68951;SDS011;56000;51.146;17.112;2023-09-07T02:20:43;10.70;;;5.70;;
68951;SDS011;56000;51.146;17.112;2023-09-07T02:23:16;11.00;;;6.30;;
68951;SDS011;56000;51.146;17.112;2023-09-07T02:25:49;11.00;;;6.50;;
68951;SDS011;56000;51.146;17.112;2023-09-07T02:28:22;8.90;;;5.60;;
68951;SDS011;56000;51.146;17.112;2023-09-07T02:31:01;11.80;;;6.80;;
68951;SDS011;56000;51.146;17.112;2023-09-07T02:35:39;10.10;;;6.20;;
68951;SDS011;56000;51.146;17.112;2023-09-07T02:38:12;12.20;;;6.90;;
68951;SDS011;56000;51.146;17.112;2023-09-07T02:40:47;13.60;;;6.70;;
68951;SDS011;56000;51.146;17.112;2023-09-07T02:43:20;11.00;;;7.00;;
68951;SDS011;56000;51.146;17.112;2023-09-07T02:45:53;10.50;;;5.70;;
68951;SDS011;56000;51.146;17.112;2023-09-07T02:48:26;10.60;;;5.90;;
68951;SDS011;56000;51.146;17.112;2023-09-07T02:51:00;11.50;;;6.60;;
68951;SDS011;56000;51.146;17.112;2023-09-07T02:53:33;7.80;;;5.00;;
68951;SDS011;56000;51.146;17.112;2023-09-07T02:56:06;8.00;;;5.30;;
68951;SDS011;56000;51.146;17.112;2023-09-07T02:58:41;12.50;;;7.00;;
68951;SDS011;56000;51.146;17.112;2023-09-07T03:01:15;12.30;;;6.30;;
68951;SDS011;56000;51.146;17.112;2023-09-07T03:03:51;18.90;;;5.80;;
68951;SDS011;56000;51.146;17.112;2023-09-07T03:06:24;12.60;;;7.00;;
68951;SDS011;56000;51.146;17.112;2023-09-07T03:08:57;12.50;;;6.70;;
68951;SDS011;56000;51.146;17.112;2023-09-07T03:11:31;11.80;;;7.00;;
68951;SDS011;56000;51.146;17.112;2023-09-07T03:14:05;16.20;;;6.80;;
68951;SDS011;56000;51.146;17.112;2023-09-07T03:16:38;15.00;;;7.30;;
68951;SDS011;56000;51.146;17.112;2023-09-07T03:19:12;13.80;;;7.30;;
68951;SDS011;56000;51.146;17.112;2023-09-07T03:21:45;16.30;;;7.30;;
68951;SDS011;56000;51.146;17.112;2023-09-07T03:24:18;11.70;;;7.10;;
68951;SDS011;56000;51.146;17.112;2023-09-07T03:26:51;11.30;;;6.80;;
68951;SDS011;56000;51.146;17.112;2023-09-07T03:29:24;11.80;;;7.30;;
68951;SDS011;56000;51.146;17.112;2023-09-07T03:31:57;12.10;;;6.60;;
68951;SDS011;56000;51.146;17.112;2023-09-07T03:34:30;12.80;;;6.40;;
68951;SDS011;56000;51.146;17.112;2023-09-07T03:37:04;11.80;;;6.40;;
68951;SDS011;56000;51.146;17.112;2023-09-07T03:39:37;14.90;;;7.10;;
68951;SDS011;56000;51.146;17.112;2023-09-07T03:42:10;11.50;;;6.50;;
68951;SDS011;56000;51.146;17.112;2023-09-07T03:44:43;15.10;;;7.40;;
68951;SDS011;56000;51.146;17.112;2023-09-07T03:47:17;15.90;;;8.80;;
68951;SDS011;56000;51.146;17.112;2023-09-07T03:49:50;13.00;;;8.20;;
68951;SDS011;56000;51.146;17.112;2023-09-07T03:52:23;12.20;;;7.50;;
68951;SDS011;56000;51.146;17.112;2023-09-07T03:54:59;17.30;;;7.50;;
68951;SDS011;56000;51.146;17.112;2023-09-07T03:57:32;9.50;;;5.90;;
68951;SDS011;56000;51.146;17.112;2023-09-07T04:00:07;11.30;;;6.10;;
68951;SDS011;56000;51.146;17.112;2023-09-07T04:02:42;11.80;;;6.90;;
68951;SDS011;56000;51.146;17.112;2023-09-07T04:05:16;13.40;;;8.10;;
68951;SDS011;56000;51.146;17.112;2023-09-07T04:07:51;10.30;;;6.60;;
68951;SDS011;56000;51.146;17.112;2023-09-07T04:10:24;13.20;;;7.10;;
68951;SDS011;56000;51.146;17.112;2023-09-07T04:12:58;15.80;;;9.30;;
68951;SDS011;56000;51.146;17.112;2023-09-07T04:15:32;16.90;;;8.50;;
68951;SDS011;56000;51.146;17.112;2023-09-07T04:20:45;16.80;;;8.50;;
68951;SDS011;56000;51.146;17.112;2023-09-07T04:23:18;13.40;;;8.50;;
68951;SDS011;56000;51.146;17.112;2023-09-07T04:25:52;12.40;;;7.10;;
68951;SDS011;56000;51.146;17.112;2023-09-07T04:28:34;12.90;;;7.70;;
68951;SDS011;56000;51.146;17.112;2023-09-07T04:31:08;14.60;;;8.10;;
68951;SDS011;56000;51.146;17.112;2023-09-07T04:33:41;16.90;;;7.60;;
68951;SDS011;56000;51.146;17.112;2023-09-07T04:36:15;13.20;;;7.40;;
68951;SDS011;56000;51.146;17.112;2023-09-07T04:38:50;14.30;;;6.90;;
68951;SDS011;56000;51.146;17.112;2023-09-07T04:41:23;16.40;;;7.60;;
68951;SDS011;56000;51.146;17.112;2023-09-07T04:43:56;15.00;;;7.90;;
68951;SDS011;56000;51.146;17.112;2023-09-07T04:46:29;18.00;;;8.50;;
68951;SDS011;56000;51.146;17.112;2023-09-07T04:49:03;19.50;;;8.50;;
68951;SDS011;56000;51.146;17.112;2023-09-07T04:51:36;15.90;;;7.60;;
68951;SDS011;56000;51.146;17.112;2023-09-07T04:54:09;14.10;;;6.70;;
68951;SDS011;56000;51.146;17.112;2023-09-07T04:56:43;16.30;;;7.10;;
68951;SDS011;56000;51.146;17.112;2023-09-07T04:59:16;16.60;;;7.60;;
68951;SDS011;56000;51.146;17.112;2023-09-07T05:01:49;12.80;;;7.50;;
68951;SDS011;56000;51.146;17.112;2023-09-07T05:04:22;13.70;;;7.60;;
68951;SDS011;56000;51.146;17.112;2023-09-07T05:06:57;14.00;;;7.10;;
68951;SDS011;56000;51.146;17.112;2023-09-07T05:09:30;9.70;;;6.70;;
68951;SDS011;56000;51.146;17.112;2023-09-07T05:12:04;14.50;;;7.80;;
68951;SDS011;56000;51.146;17.112;2023-09-07T05:14:38;16.60;;;8.00;;
68951;SDS011;56000;51.146;17.112;2023-09-07T05:17:12;17.00;;;7.10;;
68951;SDS011;56000;51.146;17.112;2023-09-07T05:19:45;15.50;;;7.40;;
68951;SDS011;56000;51.146;17.112;2023-09-07T05:22:18;22.00;;;7.80;;
68951;SDS011;56000;51.146;17.112;2023-09-07T05:24:52;12.80;;;7.50;;
68951;SDS011;56000;51.146;17.112;2023-09-07T05:27:26;18.10;;;7.60;;
68951;SDS011;56000;51.146;17.112;2023-09-07T05:29:59;17.60;;;7.90;;
68951;SDS011;56000;51.146;17.112;2023-09-07T05:32:32;14.10;;;8.20;;
68951;SDS011;56000;51.146;17.112;2023-09-07T05:35:07;19.60;;;8.00;;
68951;SDS011;56000;51.146;17.112;2023-09-07T05:37:42;14.70;;;7.90;;
68951;SDS011;56000;51.146;17.112;2023-09-07T05:40:17;11.20;;;6.90;;
68951;SDS011;56000;51.146;17.112;2023-09-07T05:42:50;15.50;;;6.80;;
68951;SDS011;56000;51.146;17.112;2023-09-07T05:45:23;11.80;;;7.40;;
68951;SDS011;56000;51.146;17.112;2023-09-07T05:47:56;12.00;;;6.60;;
68951;SDS011;56000;51.146;17.112;2023-09-07T05:50:30;9.70;;;6.20;;
68951;SDS011;56000;51.146;17.112;2023-09-07T05:53:04;14.80;;;6.40;;
68951;SDS011;56000;51.146;17.112;2023-09-07T05:55:38;10.40;;;6.80;;
68951;SDS011;56000;51.146;17.112;2023-09-07T05:58:12;14.80;;;7.80;;
68951;SDS011;56000;51.146;17.112;2023-09-07T06:00:46;17.90;;;7.90;;
68951;SDS011;56000;51.146;17.112;2023-09-07T06:03:19;17.40;;;6.90;;
68951;SDS011;56000;51.146;17.112;2023-09-07T06:05:52;19.30;;;7.50;;
68951;SDS011;56000;51.146;17.112;2023-09-07T06:08:25;18.20;;;7.40;;
68951;SDS011;56000;51.146;17.112;2023-09-07T06:10:59;14.90;;;7.40;;
68951;SDS011;56000;51.146;17.112;2023-09-07T06:13:32;14.20;;;7.00;;
68951;SDS011;56000;51.146;17.112;2023-09-07T06:16:05;16.00;;;8.10;;
68951;SDS011;56000;51.146;17.112;2023-09-07T06:18:38;12.30;;;6.90;;
68951;SDS011;56000;51.146;17.112;2023-09-07T06:21:12;13.00;;;7.10;;
68951;SDS011;56000;51.146;17.112;2023-09-07T06:23:45;12.90;;;6.90;;
68951;SDS011;56000;51.146;17.112;2023-09-07T06:26:18;10.60;;;6.70;;
68951;SDS011;56000;51.146;17.112;2023-09-07T06:28:51;15.40;;;7.40;;
68951;SDS011;56000;51.146;17.112;2023-09-07T06:31:25;17.30;;;7.90;;
68951;SDS011;56000;51.146;17.112;2023-09-07T06:33:59;14.70;;;7.10;;
68951;SDS011;56000;51.146;17.112;2023-09-07T06:36:33;13.10;;;6.60;;
68951;SDS011;56000;51.146;17.112;2023-09-07T06:39:19;11.60;;;6.90;;
68951;SDS011;56000;51.146;17.112;2023-09-07T06:41:52;14.10;;;7.20;;
68951;SDS011;56000;51.146;17.112;2023-09-07T06:44:29;18.80;;;8.00;;
68951;SDS011;56000;51.146;17.112;2023-09-07T06:47:05;15.00;;;6.80;;
68951;SDS011;56000;51.146;17.112;2023-09-07T06:49:40;11.90;;;6.80;;
68951;SDS011;56000;51.146;17.112;2023-09-07T06:52:13;14.40;;;7.00;;
68951;SDS011;56000;51.146;17.112;2023-09-07T06:54:47;15.20;;;7.90;;
68951;SDS011;56000;51.146;17.112;2023-09-07T06:57:25;15.60;;;7.40;;
68951;SDS011;56000;51.146;17.112;2023-09-07T06:59:59;13.00;;;7.10;;
68951;SDS011;56000;51.146;17.112;2023-09-07T07:02:35;13.70;;;7.80;;
68951;SDS011;56000;51.146;17.112;2023-09-07T07:05:10;16.10;;;7.50;;
68951;SDS011;56000;51.146;17.112;2023-09-07T07:07:43;13.50;;;6.90;;
68951;SDS011;56000;51.146;17.112;2023-09-07T07:10:17;16.70;;;8.20;;
68951;SDS011;56000;51.146;17.112;2023-09-07T07:12:50;16.70;;;8.30;;
68951;SDS011;56000;51.146;17.112;2023-09-07T07:15:23;15.50;;;7.80;;
68951;SDS011;56000;51.146;17.112;2023-09-07T07:17:57;13.50;;;7.40;;
68951;SDS011;56000;51.146;17.112;2023-09-07T07:20:30;15.70;;;7.20;;
68951;SDS011;56000;51.146;17.112;2023-09-07T07:23:04;17.00;;;7.90;;
68951;SDS011;56000;51.146;17.112;2023-09-07T07:25:38;17.10;;;7.50;;
68951;SDS011;56000;51.146;17.112;2023-09-07T07:28:11;16.30;;;8.10;;
68951;SDS011;56000;51.146;17.112;2023-09-07T07:30:44;17.20;;;7.70;;
68951;SDS011;56000;51.146;17.112;2023-09-07T07:33:18;16.80;;;7.30;;
68951;SDS011;56000;51.146;17.112;2023-09-07T07:35:53;17.60;;;7.40;;
68951;SDS011;56000;51.146;17.112;2023-09-07T07:38:26;16.90;;;7.70;;
68951;SDS011;56000;51.146;17.112;2023-09-07T07:40:59;13.30;;;6.50;;
68951;SDS011;56000;51.146;17.112;2023-09-07T07:43:36;15.00;;;6.70;;
68951;SDS011;56000;51.146;17.112;2023-09-07T07:46:09;16.50;;;6.50;;
68951;SDS011;56000;51.146;17.112;2023-09-07T07:48:47;15.80;;;7.20;;
68951;SDS011;56000;51.146;17.112;2023-09-07T07:51:20;16.70;;;8.10;;
68951;SDS011;56000;51.146;17.112;2023-09-07T07:53:54;17.10;;;7.30;;
68951;SDS011;56000;51.146;17.112;2023-09-07T07:56:28;17.50;;;6.70;;
68951;SDS011;56000;51.146;17.112;2023-09-07T07:59:03;14.10;;;6.80;;
68951;SDS011;56000;51.146;17.112;2023-09-07T08:01:37;12.20;;;6.50;;
68951;SDS011;56000;51.146;17.112;2023-09-07T08:04:10;13.60;;;6.90;;
68951;SDS011;56000;51.146;17.112;2023-09-07T08:06:44;13.70;;;6.50;;
68951;SDS011;56000;51.146;17.112;2023-09-07T08:09:17;12.80;;;6.30;;
68951;SDS011;56000;51.146;17.112;2023-09-07T08:11:50;12.70;;;5.80;;
68951;SDS011;56000;51.146;17.112;2023-09-07T08:14:26;15.00;;;6.10;;
68951;SDS011;56000;51.146;17.112;2023-09-07T08:16:59;15.30;;;6.30;;
68951;SDS011;56000;51.146;17.112;2023-09-07T08:19:34;12.40;;;6.00;;
68951;SDS011;56000;51.146;17.112;2023-09-07T08:22:08;11.50;;;5.80;;
68951;SDS011;56000;51.146;17.112;2023-09-07T08:24:42;12.40;;;5.80;;
68951;SDS011;56000;51.146;17.112;2023-09-07T08:27:17;12.70;;;6.00;;
68951;SDS011;56000;51.146;17.112;2023-09-07T08:29:55;9.10;;;5.30;;
68951;SDS011;56000;51.146;17.112;2023-09-07T08:32:29;10.00;;;5.70;;
68951;SDS011;56000;51.146;17.112;2023-09-07T08:35:02;9.10;;;5.30;;
68951;SDS011;56000;51.146;17.112;2023-09-07T08:37:37;10.70;;;5.20;;
68951;SDS011;56000;51.146;17.112;2023-09-07T08:40:11;10.50;;;4.90;;
68951;SDS011;56000;51.146;17.112;2023-09-07T08:42:47;14.10;;;5.50;;
68951;SDS011;56000;51.146;17.112;2023-09-07T08:45:22;7.70;;;5.10;;
68951;SDS011;56000;51.146;17.112;2023-09-07T08:47:57;9.50;;;5.20;;
68951;SDS011;56000;51.146;17.112;2023-09-07T08:50:31;11.00;;;4.90;;
68951;SDS011;56000;51.146;17.112;2023-09-07T08:53:08;9.60;;;4.70;;
68951;SDS011;56000;51.146;17.112;2023-09-07T08:55:41;9.20;;;4.50;;
68951;SDS011;56000;51.146;17.112;2023-09-07T08:58:14;7.80;;;4.70;;
68951;SDS011;56000;51.146;17.112;2023-09-07T09:00:47;7.20;;;4.90;;
68951;SDS011;56000;51.146;17.112;2023-09-07T09:03:22;6.20;;;4.20;;
68951;SDS011;56000;51.146;17.112;2023-09-07T09:05:58;10.50;;;4.60;;
68951;SDS011;56000;51.146;17.112;2023-09-07T09:08:31;5.80;;;4.20;;
68951;SDS011;56000;51.146;17.112;2023-09-07T09:11:14;8.10;;;4.70;;
68951;SDS011;56000;51.146;17.112;2023-09-07T09:13:48;8.10;;;4.60;;
68951;SDS011;56000;51.146;17.112;2023-09-07T09:16:23;6.80;;;4.20;;
68951;SDS011;56000;51.146;17.112;2023-09-07T09:18:57;8.40;;;4.40;;
68951;SDS011;56000;51.146;17.112;2023-09-07T09:21:30;8.00;;;4.20;;
68951;SDS011;56000;51.146;17.112;2023-09-07T09:24:08;7.00;;;4.60;;
68951;SDS011;56000;51.146;17.112;2023-09-07T09:26:42;5.40;;;4.10;;
68951;SDS011;56000;51.146;17.112;2023-09-07T09:29:16;8.60;;;4.30;;
68951;SDS011;56000;51.146;17.112;2023-09-07T09:31:53;7.70;;;4.20;;
68951;SDS011;56000;51.146;17.112;2023-09-07T09:34:30;8.20;;;4.50;;
68951;SDS011;56000;51.146;17.112;2023-09-07T09:37:12;9.10;;;4.00;;
68951;SDS011;56000;51.146;17.112;2023-09-07T09:39:49;6.30;;;3.90;;
68951;SDS011;56000;51.146;17.112;2023-09-07T09:42:23;7.40;;;4.10;;
68951;SDS011;56000;51.146;17.112;2023-09-07T09:47:30;7.20;;;4.40;;
68951;SDS011;56000;51.146;17.112;2023-09-07T09:50:05;6.10;;;4.10;;
68951;SDS011;56000;51.146;17.112;2023-09-07T09:52:41;6.00;;;4.00;;
68951;SDS011;56000;51.146;17.112;2023-09-07T09:55:16;9.40;;;4.40;;
68951;SDS011;56000;51.146;17.112;2023-09-07T09:57:50;5.30;;;3.60;;
68951;SDS011;56000;51.146;17.112;2023-09-07T10:00:27;5.40;;;3.90;;
68951;SDS011;56000;51.146;17.112;2023-09-07T10:03:04;5.80;;;3.80;;
68951;SDS011;56000;51.146;17.112;2023-09-07T10:05:43;8.10;;;3.90;;
68951;SDS011;56000;51.146;17.112;2023-09-07T10:08:19;5.20;;;4.00;;
68951;SDS011;56000;51.146;17.112;2023-09-07T10:10:55;8.80;;;4.20;;
68951;SDS011;56000;51.146;17.112;2023-09-07T10:13:33;5.70;;;3.90;;
68951;SDS011;56000;51.146;17.112;2023-09-07T10:16:07;6.20;;;3.50;;
68951;SDS011;56000;51.146;17.112;2023-09-07T10:18:40;5.10;;;3.90;;
68951;SDS011;56000;51.146;17.112;2023-09-07T10:21:15;4.50;;;3.50;;
68951;SDS011;56000;51.146;17.112;2023-09-07T10:23:48;5.40;;;3.60;;
68951;SDS011;56000;51.146;17.112;2023-09-07T10:26:24;5.60;;;3.60;;
68951;SDS011;56000;51.146;17.112;2023-09-07T10:29:03;6.20;;;3.90;;
68951;SDS011;56000;51.146;17.112;2023-09-07T10:31:37;5.00;;;3.30;;
68951;SDS011;56000;51.146;17.112;2023-09-07T10:34:23;4.50;;;3.70;;
68951;SDS011;56000;51.146;17.112;2023-09-07T10:37:09;7.80;;;3.70;;
68951;SDS011;56000;51.146;17.112;2023-09-07T10:39:44;6.80;;;3.80;;
68951;SDS011;56000;51.146;17.112;2023-09-07T10:42:24;5.30;;;3.70;;
68951;SDS011;56000;51.146;17.112;2023-09-07T10:45:07;5.40;;;4.00;;
68951;SDS011;56000;51.146;17.112;2023-09-07T10:47:43;5.40;;;4.00;;
68951;SDS011;56000;51.146;17.112;2023-09-07T10:50:17;3.90;;;3.50;;
68951;SDS011;56000;51.146;17.112;2023-09-07T10:52:50;7.30;;;3.30;;
68951;SDS011;56000;51.146;17.112;2023-09-07T10:55:24;7.10;;;3.60;;
68951;SDS011;56000;51.146;17.112;2023-09-07T10:58:04;6.00;;;3.20;;
68951;SDS011;56000;51.146;17.112;2023-09-07T11:00:38;11.70;;;4.00;;
68951;SDS011;56000;51.146;17.112;2023-09-07T11:03:11;5.50;;;3.60;;
68951;SDS011;56000;51.146;17.112;2023-09-07T11:05:45;6.30;;;3.60;;
68951;SDS011;56000;51.146;17.112;2023-09-07T11:08:19;5.50;;;3.60;;
68951;SDS011;56000;51.146;17.112;2023-09-07T11:10:53;4.40;;;3.20;;
68951;SDS011;56000;51.146;17.112;2023-09-07T11:13:26;3.30;;;3.00;;
68951;SDS011;56000;51.146;17.112;2023-09-07T11:16:00;3.70;;;3.30;;
68951;SDS011;56000;51.146;17.112;2023-09-07T11:18:34;8.30;;;3.50;;
68951;SDS011;56000;51.146;17.112;2023-09-07T11:21:07;5.10;;;3.30;;
68951;SDS011;56000;51.146;17.112;2023-09-07T11:23:41;4.30;;;3.50;;
68951;SDS011;56000;51.146;17.112;2023-09-07T11:26:15;7.20;;;3.40;;
68951;SDS011;56000;51.146;17.112;2023-09-07T11:28:48;6.80;;;3.50;;
68951;SDS011;56000;51.146;17.112;2023-09-07T11:31:21;7.80;;;3.50;;
68951;SDS011;56000;51.146;17.112;2023-09-07T11:33:55;5.30;;;3.40;;
68951;SDS011;56000;51.146;17.112;2023-09-07T11:36:28;5.70;;;3.40;;
68951;SDS011;56000;51.146;17.112;2023-09-07T11:39:01;5.90;;;3.20;;
68951;SDS011;56000;51.146;17.112;2023-09-07T11:41:41;4.90;;;3.70;;
68951;SDS011;56000;51.146;17.112;2023-09-07T11:44:14;4.00;;;3.30;;
68951;SDS011;56000;51.146;17.112;2023-09-07T11:46:47;7.60;;;3.80;;
68951;SDS011;56000;51.146;17.112;2023-09-07T11:49:21;4.00;;;3.10;;
68951;SDS011;56000;51.146;17.112;2023-09-07T11:51:56;6.40;;;3.50;;
68951;SDS011;56000;51.146;17.112;2023-09-07T11:54:29;6.10;;;3.30;;
68951;SDS011;56000;51.146;17.112;2023-09-07T11:57:03;8.30;;;3.50;;
68951;SDS011;56000;51.146;17.112;2023-09-07T11:59:36;5.10;;;3.30;;
68951;SDS011;56000;51.146;17.112;2023-09-07T12:02:27;5.40;;;3.40;;
68951;SDS011;56000;51.146;17.112;2023-09-07T12:05:01;4.10;;;3.20;;
68951;SDS011;56000;51.146;17.112;2023-09-07T12:07:34;6.20;;;3.60;;
68951;SDS011;56000;51.146;17.112;2023-09-07T12:10:08;5.60;;;3.60;;
68951;SDS011;56000;51.146;17.112;2023-09-07T12:12:44;6.10;;;3.40;;
68951;SDS011;56000;51.146;17.112;2023-09-07T12:15:17;3.70;;;3.00;;
68951;SDS011;56000;51.146;17.112;2023-09-07T12:17:50;5.60;;;3.30;;
68951;SDS011;56000;51.146;17.112;2023-09-07T12:20:25;3.60;;;3.00;;
68951;SDS011;56000;51.146;17.112;2023-09-07T12:22:58;3.80;;;3.30;;
68951;SDS011;56000;51.146;17.112;2023-09-07T12:25:32;5.60;;;3.60;;
68951;SDS011;56000;51.146;17.112;2023-09-07T12:28:05;4.40;;;2.90;;
68951;SDS011;56000;51.146;17.112;2023-09-07T12:30:38;5.10;;;3.50;;
68951;SDS011;56000;51.146;17.112;2023-09-07T12:33:14;7.10;;;3.50;;
68951;SDS011;56000;51.146;17.112;2023-09-07T12:35:47;4.50;;;3.20;;
68951;SDS011;56000;51.146;17.112;2023-09-07T12:38:20;5.10;;;3.60;;
68951;SDS011;56000;51.146;17.112;2023-09-07T12:40:57;6.60;;;3.30;;
68951;SDS011;56000;51.146;17.112;2023-09-07T12:43:30;7.80;;;3.50;;
68951;SDS011;56000;51.146;17.112;2023-09-07T12:46:04;5.10;;;3.20;;
68951;SDS011;56000;51.146;17.112;2023-09-07T12:48:37;4.70;;;3.50;;
68951;SDS011;56000;51.146;17.112;2023-09-07T12:51:10;9.50;;;3.70;;
68951;SDS011;56000;51.146;17.112;2023-09-07T12:53:44;5.10;;;3.50;;
68951;SDS011;56000;51.146;17.112;2023-09-07T12:56:17;5.80;;;3.40;;
68951;SDS011;56000;51.146;17.112;2023-09-07T12:58:50;5.10;;;3.40;;
68951;SDS011;56000;51.146;17.112;2023-09-07T13:01:23;7.30;;;3.70;;
68951;SDS011;56000;51.146;17.112;2023-09-07T13:03:58;3.60;;;3.10;;
68951;SDS011;56000;51.146;17.112;2023-09-07T13:06:31;7.60;;;3.30;;
68951;SDS011;56000;51.146;17.112;2023-09-07T13:09:04;8.80;;;3.70;;
68951;SDS011;56000;51.146;17.112;2023-09-07T13:11:39;4.20;;;3.50;;
68951;SDS011;56000;51.146;17.112;2023-09-07T13:14:12;6.10;;;3.70;;
68951;SDS011;56000;51.146;17.112;2023-09-07T13:16:45;5.20;;;3.30;;
68951;SDS011;56000;51.146;17.112;2023-09-07T13:19:22;6.90;;;3.80;;
68951;SDS011;56000;51.146;17.112;2023-09-07T13:21:55;4.80;;;3.50;;
68951;SDS011;56000;51.146;17.112;2023-09-07T13:24:30;6.90;;;3.60;;
68951;SDS011;56000;51.146;17.112;2023-09-07T13:27:03;5.80;;;3.70;;
68951;SDS011;56000;51.146;17.112;2023-09-07T13:29:38;7.50;;;3.30;;
68951;SDS011;56000;51.146;17.112;2023-09-07T13:32:11;4.60;;;3.20;;
68951;SDS011;56000;51.146;17.112;2023-09-07T13:34:44;5.20;;;3.70;;
68951;SDS011;56000;51.146;17.112;2023-09-07T13:37:17;5.10;;;3.60;;
68951;SDS011;56000;51.146;17.112;2023-09-07T13:39:51;4.80;;;3.70;;
68951;SDS011;56000;51.146;17.112;2023-09-07T13:42:24;7.10;;;3.40;;
68951;SDS011;56000;51.146;17.112;2023-09-07T13:44:58;4.90;;;3.10;;
68951;SDS011;56000;51.146;17.112;2023-09-07T13:47:31;7.10;;;3.60;;
68951;SDS011;56000;51.146;17.112;2023-09-07T13:50:05;7.80;;;3.50;;
68951;SDS011;56000;51.146;17.112;2023-09-07T13:52:39;4.40;;;3.60;;
68951;SDS011;56000;51.146;17.112;2023-09-07T13:55:12;8.40;;;3.60;;
68951;SDS011;56000;51.146;17.112;2023-09-07T13:57:45;5.20;;;3.30;;
68951;SDS011;56000;51.146;17.112;2023-09-07T14:00:18;4.40;;;3.10;;
68951;SDS011;56000;51.146;17.112;2023-09-07T14:02:51;5.20;;;3.10;;
68951;SDS011;56000;51.146;17.112;2023-09-07T14:05:24;5.20;;;3.20;;
68951;SDS011;56000;51.146;17.112;2023-09-07T14:07:58;5.80;;;3.30;;
68951;SDS011;56000;51.146;17.112;2023-09-07T14:10:31;19.00;;;8.20;;
68951;SDS011;56000;51.146;17.112;2023-09-07T14:13:04;5.90;;;3.40;;
68951;SDS011;56000;51.146;17.112;2023-09-07T14:15:38;18.00;;;4.00;;
68951;SDS011;56000;51.146;17.112;2023-09-07T14:18:11;6.10;;;3.70;;
68951;SDS011;56000;51.146;17.112;2023-09-07T14:20:44;9.90;;;3.70;;
68951;SDS011;56000;51.146;17.112;2023-09-07T14:23:17;4.50;;;3.50;;
68951;SDS011;56000;51.146;17.112;2023-09-07T14:25:50;5.10;;;3.40;;
68951;SDS011;56000;51.146;17.112;2023-09-07T14:28:24;6.00;;;3.60;;
68951;SDS011;56000;51.146;17.112;2023-09-07T14:30:57;6.60;;;4.90;;
68951;SDS011;56000;51.146;17.112;2023-09-07T14:33:33;7.00;;;3.10;;
68951;SDS011;56000;51.146;17.112;2023-09-07T14:36:09;3.50;;;3.20;;
68951;SDS011;56000;51.146;17.112;2023-09-07T14:38:42;5.40;;;3.20;;
68951;SDS011;56000;51.146;17.112;2023-09-07T14:41:15;14.30;;;3.80;;
68951;SDS011;56000;51.146;17.112;2023-09-07T14:43:49;10.10;;;3.40;;
68951;SDS011;56000;51.146;17.112;2023-09-07T14:46:23;5.00;;;3.00;;
68951;SDS011;56000;51.146;17.112;2023-09-07T14:48:56;4.10;;;3.20;;
68951;SDS011;56000;51.146;17.112;2023-09-07T14:51:30;6.80;;;3.20;;
68951;SDS011;56000;51.146;17.112;2023-09-07T14:54:04;6.90;;;3.50;;
68951;SDS011;56000;51.146;17.112;2023-09-07T14:56:37;7.70;;;3.30;;
68951;SDS011;56000;51.146;17.112;2023-09-07T14:59:10;11.40;;;3.80;;
68951;SDS011;56000;51.146;17.112;2023-09-07T15:01:43;7.40;;;3.50;;
68951;SDS011;56000;51.146;17.112;2023-09-07T15:04:27;4.10;;;3.30;;
68951;SDS011;56000;51.146;17.112;2023-09-07T15:07:00;5.70;;;3.40;;
68951;SDS011;56000;51.146;17.112;2023-09-07T15:09:33;10.10;;;3.70;;
68951;SDS011;56000;51.146;17.112;2023-09-07T15:12:07;7.30;;;3.40;;
68951;SDS011;56000;51.146;17.112;2023-09-07T15:14:41;11.10;;;3.50;;
68951;SDS011;56000;51.146;17.112;2023-09-07T15:17:14;6.70;;;3.20;;